sensor_id;sensor_type;location;lat;lon;timestamp;temperature;humidity
3940;DHT22;1984;48.312;9.244;2022-07-06T00:01:40;13.20;99.90
3940;DHT22;1984;48.312;9.244;2022-07-06T00:04:06;13.20;99.90
3940;DHT22;1984;48.312;9.244;2022-07-06T00:06:32;13.20;99.90
3940;DHT22;1984;48.312;9.244;2022-07-06T00:08:58;13.20;99.90
3940;DHT22;1984;48.312;9.244;2022-07-06T00:11:23;13.20;99.90
3940;DHT22;1984;48.312;9.244;2022-07-06T00:13:49;13.10;99.90
3940;DHT22;1984;48.312;9.244;2022-07-06T00:16:16;13.10;99.90
3940;DHT22;1984;48.312;9.244;2022-07-06T00:18:41;13.00;99.90
3940;DHT22;1984;48.312;9.244;2022-07-06T00:21:07;13.00;99.90
3940;DHT22;1984;48.312;9.244;2022-07-06T00:23:33;13.00;99.90
3940;DHT22;1984;48.312;9.244;2022-07-06T00:25:58;13.00;99.90
3940;DHT22;1984;48.312;9.244;2022-07-06T00:28:24;13.00;99.90
3940;DHT22;1984;48.312;9.244;2022-07-06T00:30:50;13.00;99.90
3940;DHT22;1984;48.312;9.244;2022-07-06T00:33:15;13.10;99.90
3940;DHT22;1984;48.312;9.244;2022-07-06T00:35:41;13.00;99.90
3940;DHT22;1984;48.312;9.244;2022-07-06T00:38:06;12.90;99.90
3940;DHT22;1984;48.312;9.244;2022-07-06T00:40:32;12.90;99.90
3940;DHT22;1984;48.312;9.244;2022-07-06T00:43:01;12.80;99.90
3940;DHT22;1984;48.312;9.244;2022-07-06T00:45:26;12.90;99.90
3940;DHT22;1984;48.312;9.244;2022-07-06T00:47:52;12.80;99.90
3940;DHT22;1984;48.312;9.244;2022-07-06T00:50:18;12.80;99.90
3940;DHT22;1984;48.312;9.244;2022-07-06T00:55:18;12.90;99.90
3940;DHT22;1984;48.312;9.244;2022-07-06T00:57:45;12.90;99.90
3940;DHT22;1984;48.312;9.244;2022-07-06T01:00:13;12.90;99.90
3940;DHT22;1984;48.312;9.244;2022-07-06T01:02:39;12.90;99.90
3940;DHT22;1984;48.312;9.244;2022-07-06T01:05:05;12.90;99.90
3940;DHT22;1984;48.312;9.244;2022-07-06T01:07:32;12.90;99.90
3940;DHT22;1984;48.312;9.244;2022-07-06T01:09:57;12.80;99.90
3940;DHT22;1984;48.312;9.244;2022-07-06T01:12:23;12.80;99.90
3940;DHT22;1984;48.312;9.244;2022-07-06T01:14:50;12.70;99.90
3940;DHT22;1984;48.312;9.244;2022-07-06T01:17:17;12.70;99.90
3940;DHT22;1984;48.312;9.244;2022-07-06T01:19:43;12.60;99.90
3940;DHT22;1984;48.312;9.244;2022-07-06T01:22:09;12.60;99.90
3940;DHT22;1984;48.312;9.244;2022-07-06T01:24:35;12.50;99.90
3940;DHT22;1984;48.312;9.244;2022-07-06T01:27:02;12.50;99.90
3940;DHT22;1984;48.312;9.244;2022-07-06T01:29:27;12.40;99.90
3940;DHT22;1984;48.312;9.244;2022-07-06T01:31:53;12.30;99.90
3940;DHT22;1984;48.312;9.244;2022-07-06T01:34:19;12.20;99.90
3940;DHT22;1984;48.312;9.244;2022-07-06T01:36:45;12.20;99.90
3940;DHT22;1984;48.312;9.244;2022-07-06T01:39:11;12.20;99.90
3940;DHT22;1984;48.312;9.244;2022-07-06T01:41:37;12.10;99.90
3940;DHT22;1984;48.312;9.244;2022-07-06T01:44:03;12.10;99.90
3940;DHT22;1984;48.312;9.244;2022-07-06T01:46:29;12.00;99.90
3940;DHT22;1984;48.312;9.244;2022-07-06T01:48:55;11.90;99.90
3940;DHT22;1984;48.312;9.244;2022-07-06T01:51:20;11.90;99.90
3940;DHT22;1984;48.312;9.244;2022-07-06T01:53:47;11.90;99.90
3940;DHT22;1984;48.312;9.244;2022-07-06T01:56:13;12.00;99.90
3940;DHT22;1984;48.312;9.244;2022-07-06T01:58:39;12.00;99.90
3940;DHT22;1984;48.312;9.244;2022-07-06T02:01:09;12.10;99.90
3940;DHT22;1984;48.312;9.244;2022-07-06T02:03:35;12.10;99.90
3940;DHT22;1984;48.312;9.244;2022-07-06T02:06:01;12.10;99.90
3940;DHT22;1984;48.312;9.244;2022-07-06T02:08:26;12.10;99.90
3940;DHT22;1984;48.312;9.244;2022-07-06T02:10:52;12.10;99.90
3940;DHT22;1984;48.312;9.244;2022-07-06T02:13:17;12.00;99.90
3940;DHT22;1984;48.312;9.244;2022-07-06T02:15:43;11.90;99.90
3940;DHT22;1984;48.312;9.244;2022-07-06T02:18:08;11.80;99.90
3940;DHT22;1984;48.312;9.244;2022-07-06T02:20:34;11.80;99.90
3940;DHT22;1984;48.312;9.244;2022-07-06T02:23:00;11.70;99.90
3940;DHT22;1984;48.312;9.244;2022-07-06T02:25:25;11.70;99.90
3940;DHT22;1984;48.312;9.244;2022-07-06T02:27:51;11.70;99.90
3940;DHT22;1984;48.312;9.244;2022-07-06T02:30:16;11.70;99.90
3940;DHT22;1984;48.312;9.244;2022-07-06T02:32:42;11.80;99.90
3940;DHT22;1984;48.312;9.244;2022-07-06T02:35:08;11.80;99.90
3940;DHT22;1984;48.312;9.244;2022-07-06T02:37:33;11.80;99.90
3940;DHT22;1984;48.312;9.244;2022-07-06T02:39:59;11.80;99.90
3940;DHT22;1984;48.312;9.244;2022-07-06T02:42:24;11.80;99.90
3940;DHT22;1984;48.312;9.244;2022-07-06T02:44:52;11.70;99.90
3940;DHT22;1984;48.312;9.244;2022-07-06T02:47:18;11.60;99.90
3940;DHT22;1984;48.312;9.244;2022-07-06T02:49:44;11.60;99.90
3940;DHT22;1984;48.312;9.244;2022-07-06T02:52:09;11.60;99.90
3940;DHT22;1984;48.312;9.244;2022-07-06T02:54:35;11.60;99.90
3940;DHT22;1984;48.312;9.244;2022-07-06T02:57:00;11.60;99.90
3940;DHT22;1984;48.312;9.244;2022-07-06T02:59:26;11.60;99.90
3940;DHT22;1984;48.312;9.244;2022-07-06T03:01:51;11.50;99.90
3940;DHT22;1984;48.312;9.244;2022-07-06T03:04:17;11.50;99.90
3940;DHT22;1984;48.312;9.244;2022-07-06T03:06:42;11.60;99.90
3940;DHT22;1984;48.312;9.244;2022-07-06T03:09:08;11.60;99.90
3940;DHT22;1984;48.312;9.244;2022-07-06T03:11:34;11.60;99.90
3940;DHT22;1984;48.312;9.244;2022-07-06T03:14:05;11.60;99.90
3940;DHT22;1984;48.312;9.244;2022-07-06T03:16:31;11.60;99.90
3940;DHT22;1984;48.312;9.244;2022-07-06T03:18:57;11.50;99.90
3940;DHT22;1984;48.312;9.244;2022-07-06T03:21:25;11.50;99.90
3940;DHT22;1984;48.312;9.244;2022-07-06T03:23:51;11.40;99.90
3940;DHT22;1984;48.312;9.244;2022-07-06T03:26:16;11.30;99.90
3940;DHT22;1984;48.312;9.244;2022-07-06T03:28:42;11.30;99.90
3940;DHT22;1984;48.312;9.244;2022-07-06T03:31:07;11.30;99.90
3940;DHT22;1984;48.312;9.244;2022-07-06T03:33:33;11.30;99.90
3940;DHT22;1984;48.312;9.244;2022-07-06T03:35:58;11.40;99.90
3940;DHT22;1984;48.312;9.244;2022-07-06T03:38:24;11.30;99.90
3940;DHT22;1984;48.312;9.244;2022-07-06T03:40:49;11.30;99.90
3940;DHT22;1984;48.312;9.244;2022-07-06T03:43:15;11.20;99.90
3940;DHT22;1984;48.312;9.244;2022-07-06T03:45:41;11.20;99.90
3940;DHT22;1984;48.312;9.244;2022-07-06T03:48:06;11.20;99.90
3940;DHT22;1984;48.312;9.244;2022-07-06T03:50:32;11.30;99.90
3940;DHT22;1984;48.312;9.244;2022-07-06T03:52:57;11.30;99.90
3940;DHT22;1984;48.312;9.244;2022-07-06T03:55:23;11.30;99.90
3940;DHT22;1984;48.312;9.244;2022-07-06T03:57:48;11.40;99.90
3940;DHT22;1984;48.312;9.244;2022-07-06T04:00:14;11.40;99.90
3940;DHT22;1984;48.312;9.244;2022-07-06T04:02:40;11.40;99.90
3940;DHT22;1984;48.312;9.244;2022-07-06T04:05:06;11.30;99.90
3940;DHT22;1984;48.312;9.244;2022-07-06T04:07:32;11.30;99.90
3940;DHT22;1984;48.312;9.244;2022-07-06T04:09:57;11.20;99.90
3940;DHT22;1984;48.312;9.244;2022-07-06T04:12:23;11.20;99.90
3940;DHT22;1984;48.312;9.244;2022-07-06T04:14:48;11.20;99.90
3940;DHT22;1984;48.312;9.244;2022-07-06T04:17:14;11.20;99.90
3940;DHT22;1984;48.312;9.244;2022-07-06T04:19:58;11.30;99.90
3940;DHT22;1984;48.312;9.244;2022-07-06T04:22:24;11.40;99.90
3940;DHT22;1984;48.312;9.244;2022-07-06T04:24:49;11.50;99.90
3940;DHT22;1984;48.312;9.244;2022-07-06T04:27:15;11.50;99.90
3940;DHT22;1984;48.312;9.244;2022-07-06T04:29:40;11.50;99.90
3940;DHT22;1984;48.312;9.244;2022-07-06T04:32:06;11.50;99.90
3940;DHT22;1984;48.312;9.244;2022-07-06T04:34:32;11.50;99.90
3940;DHT22;1984;48.312;9.244;2022-07-06T04:36:57;11.50;99.90
3940;DHT22;1984;48.312;9.244;2022-07-06T04:39:23;11.60;99.90
3940;DHT22;1984;48.312;9.244;2022-07-06T04:41:48;11.60;99.90
3940;DHT22;1984;48.312;9.244;2022-07-06T04:44:14;11.60;99.90
3940;DHT22;1984;48.312;9.244;2022-07-06T04:46:39;11.70;99.90
3940;DHT22;1984;48.312;9.244;2022-07-06T04:49:05;11.90;99.90
3940;DHT22;1984;48.312;9.244;2022-07-06T04:51:30;12.00;99.90
3940;DHT22;1984;48.312;9.244;2022-07-06T04:53:56;12.20;99.90
3940;DHT22;1984;48.312;9.244;2022-07-06T04:56:21;12.30;99.90
3940;DHT22;1984;48.312;9.244;2022-07-06T04:58:47;12.40;99.90
3940;DHT22;1984;48.312;9.244;2022-07-06T05:01:12;12.50;99.90
3940;DHT22;1984;48.312;9.244;2022-07-06T05:03:38;12.50;99.90
3940;DHT22;1984;48.312;9.244;2022-07-06T05:06:06;12.60;99.90
3940;DHT22;1984;48.312;9.244;2022-07-06T05:08:32;12.50;99.90
3940;DHT22;1984;48.312;9.244;2022-07-06T05:10:58;12.50;99.90
3940;DHT22;1984;48.312;9.244;2022-07-06T05:13:24;12.50;99.90
3940;DHT22;1984;48.312;9.244;2022-07-06T05:15:49;12.50;99.90
3940;DHT22;1984;48.312;9.244;2022-07-06T05:18:15;12.50;99.90
3940;DHT22;1984;48.312;9.244;2022-07-06T05:20:40;12.60;99.90
3940;DHT22;1984;48.312;9.244;2022-07-06T05:23:06;12.70;99.90
3940;DHT22;1984;48.312;9.244;2022-07-06T05:25:31;12.70;99.90
3940;DHT22;1984;48.312;9.244;2022-07-06T05:27:58;12.80;99.90
3940;DHT22;1984;48.312;9.244;2022-07-06T05:30:24;12.90;99.90
3940;DHT22;1984;48.312;9.244;2022-07-06T05:32:49;13.20;99.90
3940;DHT22;1984;48.312;9.244;2022-07-06T05:35:15;13.40;99.90
3940;DHT22;1984;48.312;9.244;2022-07-06T05:37:41;13.70;99.90
3940;DHT22;1984;48.312;9.244;2022-07-06T05:40:07;14.00;99.90
3940;DHT22;1984;48.312;9.244;2022-07-06T05:42:33;14.20;99.90
3940;DHT22;1984;48.312;9.244;2022-07-06T05:44:58;14.30;99.90
3940;DHT22;1984;48.312;9.244;2022-07-06T05:47:24;14.40;99.90
3940;DHT22;1984;48.312;9.244;2022-07-06T05:50:08;14.60;99.90
3940;DHT22;1984;48.312;9.244;2022-07-06T05:52:44;14.80;99.90
3940;DHT22;1984;48.312;9.244;2022-07-06T05:55:11;14.90;99.90
3940;DHT22;1984;48.312;9.244;2022-07-06T05:57:37;15.00;99.90
3940;DHT22;1984;48.312;9.244;2022-07-06T06:00:04;15.20;99.90
3940;DHT22;1984;48.312;9.244;2022-07-06T06:02:40;15.30;99.90
3940;DHT22;1984;48.312;9.244;2022-07-06T06:05:10;15.50;99.90
3940;DHT22;1984;48.312;9.244;2022-07-06T06:07:37;15.70;99.90
3940;DHT22;1984;48.312;9.244;2022-07-06T06:10:08;15.90;99.90
3940;DHT22;1984;48.312;9.244;2022-07-06T06:12:34;16.10;99.90
3940;DHT22;1984;48.312;9.244;2022-07-06T06:14:59;16.20;99.90
3940;DHT22;1984;48.312;9.244;2022-07-06T06:17:25;16.40;99.90
3940;DHT22;1984;48.312;9.244;2022-07-06T06:19:50;16.60;99.90
3940;DHT22;1984;48.312;9.244;2022-07-06T06:22:16;16.80;99.90
3940;DHT22;1984;48.312;9.244;2022-07-06T06:24:41;16.90;99.90
3940;DHT22;1984;48.312;9.244;2022-07-06T06:27:07;17.00;99.90
3940;DHT22;1984;48.312;9.244;2022-07-06T06:29:32;17.20;99.90
3940;DHT22;1984;48.312;9.244;2022-07-06T06:31:58;17.40;99.90
3940;DHT22;1984;48.312;9.244;2022-07-06T06:34:24;17.60;99.90
3940;DHT22;1984;48.312;9.244;2022-07-06T06:36:49;17.80;99.90
3940;DHT22;1984;48.312;9.244;2022-07-06T06:39:15;17.90;99.90
3940;DHT22;1984;48.312;9.244;2022-07-06T06:41:41;18.00;99.90
3940;DHT22;1984;48.312;9.244;2022-07-06T06:44:06;18.20;99.90
3940;DHT22;1984;48.312;9.244;2022-07-06T06:46:32;18.40;99.90
3940;DHT22;1984;48.312;9.244;2022-07-06T06:48:57;18.60;99.90
3940;DHT22;1984;48.312;9.244;2022-07-06T06:51:23;18.80;99.90
3940;DHT22;1984;48.312;9.244;2022-07-06T06:53:48;19.20;99.90
3940;DHT22;1984;48.312;9.244;2022-07-06T06:56:14;19.60;99.90
3940;DHT22;1984;48.312;9.244;2022-07-06T06:58:39;20.00;99.90
3940;DHT22;1984;48.312;9.244;2022-07-06T07:01:05;20.30;99.90
3940;DHT22;1984;48.312;9.244;2022-07-06T07:03:31;20.60;99.90
3940;DHT22;1984;48.312;9.244;2022-07-06T07:05:57;20.60;99.90
3940;DHT22;1984;48.312;9.244;2022-07-06T07:08:22;20.90;99.90
3940;DHT22;1984;48.312;9.244;2022-07-06T07:10:48;21.50;99.90
3940;DHT22;1984;48.312;9.244;2022-07-06T07:13:14;21.90;99.90
3940;DHT22;1984;48.312;9.244;2022-07-06T07:15:39;22.00;99.90
3940;DHT22;1984;48.312;9.244;2022-07-06T07:18:06;22.40;99.90
3940;DHT22;1984;48.312;9.244;2022-07-06T07:20:31;22.80;99.90
3940;DHT22;1984;48.312;9.244;2022-07-06T07:22:59;23.20;99.90
3940;DHT22;1984;48.312;9.244;2022-07-06T07:25:25;23.40;99.90
3940;DHT22;1984;48.312;9.244;2022-07-06T07:27:51;23.80;99.30
3940;DHT22;1984;48.312;9.244;2022-07-06T07:30:16;24.10;98.30
3940;DHT22;1984;48.312;9.244;2022-07-06T07:32:42;24.40;97.70
3940;DHT22;1984;48.312;9.244;2022-07-06T07:35:08;24.70;97.00
3940;DHT22;1984;48.312;9.244;2022-07-06T07:37:34;25.40;96.20
3940;DHT22;1984;48.312;9.244;2022-07-06T07:39:59;25.70;94.30
3940;DHT22;1984;48.312;9.244;2022-07-06T07:42:25;26.10;93.00
3940;DHT22;1984;48.312;9.244;2022-07-06T07:44:50;26.30;92.80
3940;DHT22;1984;48.312;9.244;2022-07-06T07:47:16;26.70;91.80
3940;DHT22;1984;48.312;9.244;2022-07-06T07:49:41;27.00;91.60
3940;DHT22;1984;48.312;9.244;2022-07-06T07:52:07;27.40;90.70
3940;DHT22;1984;48.312;9.244;2022-07-06T07:54:33;27.70;88.90
3940;DHT22;1984;48.312;9.244;2022-07-06T07:56:58;27.60;88.20
3940;DHT22;1984;48.312;9.244;2022-07-06T07:59:24;27.70;88.10
3940;DHT22;1984;48.312;9.244;2022-07-06T08:01:50;27.70;87.60
3940;DHT22;1984;48.312;9.244;2022-07-06T08:04:15;27.70;87.60
3940;DHT22;1984;48.312;9.244;2022-07-06T08:06:42;28.10;87.00
3940;DHT22;1984;48.312;9.244;2022-07-06T08:09:07;28.30;84.70
3940;DHT22;1984;48.312;9.244;2022-07-06T08:11:34;28.40;84.60
3940;DHT22;1984;48.312;9.244;2022-07-06T08:14:00;28.60;84.10
3940;DHT22;1984;48.312;9.244;2022-07-06T08:16:26;29.20;81.60
3940;DHT22;1984;48.312;9.244;2022-07-06T08:18:51;29.30;81.00
3940;DHT22;1984;48.312;9.244;2022-07-06T08:21:17;29.80;80.20
3940;DHT22;1984;48.312;9.244;2022-07-06T08:23:43;30.30;77.50
3940;DHT22;1984;48.312;9.244;2022-07-06T08:26:08;30.30;75.60
3940;DHT22;1984;48.312;9.244;2022-07-06T08:28:34;29.90;76.80
3940;DHT22;1984;48.312;9.244;2022-07-06T08:31:00;29.80;76.80
3940;DHT22;1984;48.312;9.244;2022-07-06T08:33:25;29.90;75.90
3940;DHT22;1984;48.312;9.244;2022-07-06T08:35:51;30.00;77.70
3940;DHT22;1984;48.312;9.244;2022-07-06T08:38:17;30.40;73.80
3940;DHT22;1984;48.312;9.244;2022-07-06T08:40:45;30.40;72.80
3940;DHT22;1984;48.312;9.244;2022-07-06T08:43:12;30.40;75.20
3940;DHT22;1984;48.312;9.244;2022-07-06T08:45:40;30.90;74.80
3940;DHT22;1984;48.312;9.244;2022-07-06T08:48:09;31.50;74.00
3940;DHT22;1984;48.312;9.244;2022-07-06T08:50:36;31.90;71.20
3940;DHT22;1984;48.312;9.244;2022-07-06T08:53:01;31.70;69.40
3940;DHT22;1984;48.312;9.244;2022-07-06T08:55:27;31.10;69.80
3940;DHT22;1984;48.312;9.244;2022-07-06T08:57:55;31.00;70.80
3940;DHT22;1984;48.312;9.244;2022-07-06T09:00:21;30.80;70.80
3940;DHT22;1984;48.312;9.244;2022-07-06T09:02:46;30.40;71.30
3940;DHT22;1984;48.312;9.244;2022-07-06T09:05:15;30.40;69.60
3940;DHT22;1984;48.312;9.244;2022-07-06T09:07:41;30.80;69.40
3940;DHT22;1984;48.312;9.244;2022-07-06T09:10:09;31.20;67.60
3940;DHT22;1984;48.312;9.244;2022-07-06T09:12:34;31.30;64.40
3940;DHT22;1984;48.312;9.244;2022-07-06T09:15:00;31.40;63.70
3940;DHT22;1984;48.312;9.244;2022-07-06T09:17:28;31.40;63.40
3940;DHT22;1984;48.312;9.244;2022-07-06T09:19:55;31.50;66.30
3940;DHT22;1984;48.312;9.244;2022-07-06T09:22:25;31.90;60.90
3940;DHT22;1984;48.312;9.244;2022-07-06T09:24:51;32.20;60.50
3940;DHT22;1984;48.312;9.244;2022-07-06T09:27:16;32.40;61.90
3940;DHT22;1984;48.312;9.244;2022-07-06T09:29:43;32.70;61.90
3940;DHT22;1984;48.312;9.244;2022-07-06T09:32:10;32.80;61.40
3940;DHT22;1984;48.312;9.244;2022-07-06T09:34:43;33.10;58.20
3940;DHT22;1984;48.312;9.244;2022-07-06T09:37:09;32.60;58.00
3940;DHT22;1984;48.312;9.244;2022-07-06T09:39:35;32.50;61.90
3940;DHT22;1984;48.312;9.244;2022-07-06T09:42:02;32.70;59.40
3940;DHT22;1984;48.312;9.244;2022-07-06T09:44:31;33.30;60.10
3940;DHT22;1984;48.312;9.244;2022-07-06T09:46:59;33.00;59.10
3940;DHT22;1984;48.312;9.244;2022-07-06T09:49:26;32.40;60.50
3940;DHT22;1984;48.312;9.244;2022-07-06T09:51:54;32.40;61.70
3940;DHT22;1984;48.312;9.244;2022-07-06T09:54:19;31.80;61.80
3940;DHT22;1984;48.312;9.244;2022-07-06T09:56:47;30.40;63.10
3940;DHT22;1984;48.312;9.244;2022-07-06T09:59:20;29.40;64.00
3940;DHT22;1984;48.312;9.244;2022-07-06T10:01:47;29.90;68.20
3940;DHT22;1984;48.312;9.244;2022-07-06T10:04:15;30.60;65.70
3940;DHT22;1984;48.312;9.244;2022-07-06T10:06:44;31.30;63.90
3940;DHT22;1984;48.312;9.244;2022-07-06T10:09:11;31.70;64.50
3940;DHT22;1984;48.312;9.244;2022-07-06T10:11:41;32.20;61.50
3940;DHT22;1984;48.312;9.244;2022-07-06T10:14:08;33.00;61.40
3940;DHT22;1984;48.312;9.244;2022-07-06T10:16:36;33.50;60.10
3940;DHT22;1984;48.312;9.244;2022-07-06T10:19:05;33.90;60.70
3940;DHT22;1984;48.312;9.244;2022-07-06T10:21:31;32.70;58.90
3940;DHT22;1984;48.312;9.244;2022-07-06T10:23:57;31.20;59.60
3940;DHT22;1984;48.312;9.244;2022-07-06T10:26:25;29.80;60.00
3940;DHT22;1984;48.312;9.244;2022-07-06T10:28:52;28.80;63.80
3940;DHT22;1984;48.312;9.244;2022-07-06T10:31:18;28.90;65.80
3940;DHT22;1984;48.312;9.244;2022-07-06T10:33:45;28.50;65.30
3940;DHT22;1984;48.312;9.244;2022-07-06T10:36:11;28.80;65.40
3940;DHT22;1984;48.312;9.244;2022-07-06T10:38:37;29.30;66.10
3940;DHT22;1984;48.312;9.244;2022-07-06T10:41:08;29.40;66.10
3940;DHT22;1984;48.312;9.244;2022-07-06T10:43:41;29.80;63.20
3940;DHT22;1984;48.312;9.244;2022-07-06T10:46:09;30.30;63.00
3940;DHT22;1984;48.312;9.244;2022-07-06T10:51:06;30.30;64.20
3940;DHT22;1984;48.312;9.244;2022-07-06T10:53:39;30.20;61.00
3940;DHT22;1984;48.312;9.244;2022-07-06T10:56:10;30.00;61.10
3940;DHT22;1984;48.312;9.244;2022-07-06T11:01:12;28.60;63.30
3940;DHT22;1984;48.312;9.244;2022-07-06T11:03:44;28.80;66.00
3940;DHT22;1984;48.312;9.244;2022-07-06T11:06:21;29.30;64.30
3940;DHT22;1984;48.312;9.244;2022-07-06T11:09:00;28.90;64.80
3940;DHT22;1984;48.312;9.244;2022-07-06T11:14:02;27.90;68.30
3940;DHT22;1984;48.312;9.244;2022-07-06T11:16:30;27.70;65.70
3940;DHT22;1984;48.312;9.244;2022-07-06T11:19:03;27.10;66.80
3940;DHT22;1984;48.312;9.244;2022-07-06T11:21:45;27.00;68.90
3940;DHT22;1984;48.312;9.244;2022-07-06T11:24:25;27.20;72.30
3940;DHT22;1984;48.312;9.244;2022-07-06T11:26:52;27.20;71.20
3940;DHT22;1984;48.312;9.244;2022-07-06T11:29:19;27.00;69.90
3940;DHT22;1984;48.312;9.244;2022-07-06T11:31:51;26.30;70.50
3940;DHT22;1984;48.312;9.244;2022-07-06T11:36:47;26.20;73.50
3940;DHT22;1984;48.312;9.244;2022-07-06T11:39:14;26.30;67.60
3940;DHT22;1984;48.312;9.244;2022-07-06T11:41:40;26.50;69.70
3940;DHT22;1984;48.312;9.244;2022-07-06T11:44:05;26.30;73.70
3940;DHT22;1984;48.312;9.244;2022-07-06T11:46:32;26.30;71.30
3940;DHT22;1984;48.312;9.244;2022-07-06T11:49:07;26.20;72.30
3940;DHT22;1984;48.312;9.244;2022-07-06T11:51:35;26.40;72.90
3940;DHT22;1984;48.312;9.244;2022-07-06T11:54:08;26.60;71.40
3940;DHT22;1984;48.312;9.244;2022-07-06T11:56:34;26.60;71.60
3940;DHT22;1984;48.312;9.244;2022-07-06T11:59:00;26.30;73.00
3940;DHT22;1984;48.312;9.244;2022-07-06T12:01:30;26.20;74.60
3940;DHT22;1984;48.312;9.244;2022-07-06T12:03:58;26.40;74.70
3940;DHT22;1984;48.312;9.244;2022-07-06T12:06:25;26.50;74.90
3940;DHT22;1984;48.312;9.244;2022-07-06T12:08:59;26.40;73.40
3940;DHT22;1984;48.312;9.244;2022-07-06T12:11:28;25.90;73.20
3940;DHT22;1984;48.312;9.244;2022-07-06T12:13:58;25.50;72.20
3940;DHT22;1984;48.312;9.244;2022-07-06T12:16:34;25.30;74.00
3940;DHT22;1984;48.312;9.244;2022-07-06T12:19:02;25.00;74.10
3940;DHT22;1984;48.312;9.244;2022-07-06T12:21:29;24.90;76.20
3940;DHT22;1984;48.312;9.244;2022-07-06T12:23:55;24.80;76.70
3940;DHT22;1984;48.312;9.244;2022-07-06T12:26:24;24.80;77.70
3940;DHT22;1984;48.312;9.244;2022-07-06T12:29:07;24.60;76.50
3940;DHT22;1984;48.312;9.244;2022-07-06T12:31:44;24.50;75.10
3940;DHT22;1984;48.312;9.244;2022-07-06T12:34:14;24.50;78.70
3940;DHT22;1984;48.312;9.244;2022-07-06T12:39:17;24.80;80.20
3940;DHT22;1984;48.312;9.244;2022-07-06T12:41:53;24.90;79.80
3940;DHT22;1984;48.312;9.244;2022-07-06T12:44:24;25.00;81.30
3940;DHT22;1984;48.312;9.244;2022-07-06T12:47:01;25.10;78.80
3940;DHT22;1984;48.312;9.244;2022-07-06T12:49:28;25.10;80.00
3940;DHT22;1984;48.312;9.244;2022-07-06T12:51:59;25.20;77.40
3940;DHT22;1984;48.312;9.244;2022-07-06T12:54:34;25.20;76.80
3940;DHT22;1984;48.312;9.244;2022-07-06T12:59:25;25.00;76.60
3940;DHT22;1984;48.312;9.244;2022-07-06T13:01:52;24.80;75.90
3940;DHT22;1984;48.312;9.244;2022-07-06T13:04:22;24.80;80.40
3940;DHT22;1984;48.312;9.244;2022-07-06T13:06:47;24.70;76.80
3940;DHT22;1984;48.312;9.244;2022-07-06T13:09:13;24.60;80.00
3940;DHT22;1984;48.312;9.244;2022-07-06T13:11:40;24.60;78.70
3940;DHT22;1984;48.312;9.244;2022-07-06T13:14:05;24.70;80.70
3940;DHT22;1984;48.312;9.244;2022-07-06T13:16:31;24.80;78.20
3940;DHT22;1984;48.312;9.244;2022-07-06T13:19:00;24.80;79.40
3940;DHT22;1984;48.312;9.244;2022-07-06T13:21:25;24.80;79.20
3940;DHT22;1984;48.312;9.244;2022-07-06T13:23:51;24.60;80.50
3940;DHT22;1984;48.312;9.244;2022-07-06T13:26:17;24.60;77.30
3940;DHT22;1984;48.312;9.244;2022-07-06T13:28:42;24.50;79.40
3940;DHT22;1984;48.312;9.244;2022-07-06T13:31:08;24.40;77.60
3940;DHT22;1984;48.312;9.244;2022-07-06T13:33:33;24.30;80.50
3940;DHT22;1984;48.312;9.244;2022-07-06T13:36:00;24.30;83.00
3940;DHT22;1984;48.312;9.244;2022-07-06T13:38:26;24.50;83.70
3940;DHT22;1984;48.312;9.244;2022-07-06T13:40:52;24.50;82.30
3940;DHT22;1984;48.312;9.244;2022-07-06T13:43:18;24.70;84.10
3940;DHT22;1984;48.312;9.244;2022-07-06T13:45:45;24.80;85.10
3940;DHT22;1984;48.312;9.244;2022-07-06T13:48:10;25.00;84.10
3940;DHT22;1984;48.312;9.244;2022-07-06T13:50:36;25.00;82.40
3940;DHT22;1984;48.312;9.244;2022-07-06T13:53:01;25.00;84.20
3940;DHT22;1984;48.312;9.244;2022-07-06T13:55:27;24.80;85.30
3940;DHT22;1984;48.312;9.244;2022-07-06T13:57:52;24.70;84.70
3940;DHT22;1984;48.312;9.244;2022-07-06T14:00:18;24.30;85.00
3940;DHT22;1984;48.312;9.244;2022-07-06T14:02:44;24.00;85.60
3940;DHT22;1984;48.312;9.244;2022-07-06T14:05:10;23.70;87.30
3940;DHT22;1984;48.312;9.244;2022-07-06T14:07:36;23.50;85.50
3940;DHT22;1984;48.312;9.244;2022-07-06T14:10:02;23.60;86.60
3940;DHT22;1984;48.312;9.244;2022-07-06T14:12:28;23.60;87.00
3940;DHT22;1984;48.312;9.244;2022-07-06T14:14:53;23.70;87.10
3940;DHT22;1984;48.312;9.244;2022-07-06T14:17:19;23.80;87.30
3940;DHT22;1984;48.312;9.244;2022-07-06T14:19:45;23.80;87.10
3940;DHT22;1984;48.312;9.244;2022-07-06T14:22:10;23.90;87.10
3940;DHT22;1984;48.312;9.244;2022-07-06T14:24:36;23.80;86.40
3940;DHT22;1984;48.312;9.244;2022-07-06T14:27:02;23.80;88.20
3940;DHT22;1984;48.312;9.244;2022-07-06T14:29:27;23.70;88.30
3940;DHT22;1984;48.312;9.244;2022-07-06T14:31:53;23.70;89.60
3940;DHT22;1984;48.312;9.244;2022-07-06T14:34:18;23.70;90.30
3940;DHT22;1984;48.312;9.244;2022-07-06T14:36:44;23.80;90.40
3940;DHT22;1984;48.312;9.244;2022-07-06T14:39:10;24.00;88.90
3940;DHT22;1984;48.312;9.244;2022-07-06T14:41:38;24.00;86.60
3940;DHT22;1984;48.312;9.244;2022-07-06T14:44:04;24.10;88.30
3940;DHT22;1984;48.312;9.244;2022-07-06T14:46:30;24.10;88.80
3940;DHT22;1984;48.312;9.244;2022-07-06T14:48:56;24.00;88.00
3940;DHT22;1984;48.312;9.244;2022-07-06T14:51:21;24.00;87.70
3940;DHT22;1984;48.312;9.244;2022-07-06T14:53:47;24.00;87.80
3940;DHT22;1984;48.312;9.244;2022-07-06T14:56:13;24.00;88.00
3940;DHT22;1984;48.312;9.244;2022-07-06T14:58:38;24.00;88.40
3940;DHT22;1984;48.312;9.244;2022-07-06T15:01:04;24.00;89.80
3940;DHT22;1984;48.312;9.244;2022-07-06T15:03:29;23.90;89.40
3940;DHT22;1984;48.312;9.244;2022-07-06T15:05:55;23.80;88.40
3940;DHT22;1984;48.312;9.244;2022-07-06T15:08:21;23.80;89.00
3940;DHT22;1984;48.312;9.244;2022-07-06T15:10:46;23.60;88.60
3940;DHT22;1984;48.312;9.244;2022-07-06T15:13:12;23.60;90.40
3940;DHT22;1984;48.312;9.244;2022-07-06T15:15:38;23.60;88.60
3940;DHT22;1984;48.312;9.244;2022-07-06T15:18:04;23.60;89.30
3940;DHT22;1984;48.312;9.244;2022-07-06T15:20:30;23.50;88.40
3940;DHT22;1984;48.312;9.244;2022-07-06T15:22:55;23.40;88.20
3940;DHT22;1984;48.312;9.244;2022-07-06T15:25:21;23.30;88.40
3940;DHT22;1984;48.312;9.244;2022-07-06T15:27:50;23.20;91.00
3940;DHT22;1984;48.312;9.244;2022-07-06T15:30:16;23.00;89.00
3940;DHT22;1984;48.312;9.244;2022-07-06T15:32:41;23.00;90.40
3940;DHT22;1984;48.312;9.244;2022-07-06T15:35:07;23.10;90.60
3940;DHT22;1984;48.312;9.244;2022-07-06T15:37:34;23.10;90.40
3940;DHT22;1984;48.312;9.244;2022-07-06T15:40:00;23.10;90.90
3940;DHT22;1984;48.312;9.244;2022-07-06T15:42:26;23.00;90.80
3940;DHT22;1984;48.312;9.244;2022-07-06T15:44:51;23.10;91.40
3940;DHT22;1984;48.312;9.244;2022-07-06T15:47:18;23.10;90.90
3940;DHT22;1984;48.312;9.244;2022-07-06T15:49:45;23.00;90.70
3940;DHT22;1984;48.312;9.244;2022-07-06T15:52:11;23.00;91.20
3940;DHT22;1984;48.312;9.244;2022-07-06T15:54:37;22.90;91.60
3940;DHT22;1984;48.312;9.244;2022-07-06T15:57:04;22.80;91.60
3940;DHT22;1984;48.312;9.244;2022-07-06T15:59:30;22.90;90.60
3940;DHT22;1984;48.312;9.244;2022-07-06T16:01:55;22.80;91.00
3940;DHT22;1984;48.312;9.244;2022-07-06T16:04:21;22.60;90.60
3940;DHT22;1984;48.312;9.244;2022-07-06T16:06:47;22.60;91.20
3940;DHT22;1984;48.312;9.244;2022-07-06T16:09:13;22.50;91.20
3940;DHT22;1984;48.312;9.244;2022-07-06T16:11:38;22.40;91.00
3940;DHT22;1984;48.312;9.244;2022-07-06T16:14:04;22.40;91.30
3940;DHT22;1984;48.312;9.244;2022-07-06T16:16:29;22.40;90.80